Latest Weather Observations for Lucas Heights

IDN60801

Issued at 12:32 pm EDT Tuesday 9 February 2016 (issued every 30 minutes, with the page automatically refreshed every 10 minutes)

About weather observations | Map of weather stations | Latest weather observations for NSW | Other Formats
Station Details ID: 066023 Name: LUCAS HEIGHTS AWS Lat: -34.05 Lon: 150.98 Height: 140.0 m
Data from the previous 72 hours. | See also: Recent months for locations in New South Wales
Date/Time
EDT
Temp
°C
App
Temp
°C
Dew
Point
Rel
Hum
%
Delta-T
°C
Wind Press
QNH
hPa
Press
MSL
hPa
Rain
since 9 am
mm
Dir
 
Spd
km/h
Gust
km/h
Spd
kts
Gust
kts
09/12:15pm 23.8 20.9 15.2 58 5.2 SSE 24 37 13 20 1020.8 - 0.0
09/12:00pm 23.9 21.5 15.3 58 5.2 SSE 22 33 12 18 1020.9 - 0.0
09/11:45am 24.0 22.2 15.6 59 5.1 SSE 19 33 10 18 1020.9 - 0.0
09/11:30am 23.6 20.9 15.6 61 4.8 SSE 24 37 13 20 1021.0 - 0.0
09/11:15am 23.5 20.4 15.7 61 4.7 SSE 26 41 14 22 1021.0 - 0.0
09/11:00am 23.3 21.5 16.0 63 4.4 SSE 20 37 11 20 1021.1 - 0.0
09/10:45am 22.7 20.0 15.6 64 4.3 SSE 24 39 13 21 1021.2 - 0.0
09/10:30am 22.5 19.3 15.4 64 4.3 SSE 26 37 14 20 1021.2 - 0.0
09/10:15am 23.2 21.6 16.0 64 4.4 SSE 19 30 10 16 1021.0 - 0.0
09/10:00am 22.9 21.1 16.0 65 4.2 SSE 20 32 11 17 1021.0 - 0.0
09/09:45am 22.9 21.2 16.2 66 4.1 SSE 20 37 11 20 1020.9 - 0.0
09/09:30am 22.7 21.2 16.2 66 4.0 S 19 30 10 16 1020.8 - 0.0
09/09:15am 22.1 21.4 16.3 69 3.5 S 15 22 8 12 1020.9 - 0.0
09/09:00am 21.3 20.0 15.8 71 3.3 SSE 17 24 9 13 1020.9 - 0.0
09/08:45am 21.6 20.4 16.1 71 3.3 S 17 22 9 12 1020.7 - 0.0
09/08:30am 21.6 20.4 16.1 71 3.3 SSE 17 22 9 12 1020.5 - 0.0
09/08:15am 21.5 19.9 16.1 71 3.3 SSE 19 24 10 13 1020.4 - 0.0
09/08:00am 20.9 20.0 15.9 73 3.0 S 15 20 8 11 1020.1 - 0.0
09/07:45am 20.2 18.4 15.4 74 2.9 S 19 24 10 13 1020.0 - 0.0
09/07:30am 19.9 18.4 15.3 75 2.7 S 17 24 9 13 1019.9 - 0.0
09/07:15am 19.5 18.3 15.1 76 2.6 S 15 22 8 12 1019.7 - 0.0
09/07:00am 19.4 18.6 15.1 76 2.5 S 13 20 7 11 1019.5 - 0.0
09/06:45am 19.0 18.1 14.8 76 2.5 S 13 20 7 11 1019.3 - 0.0
09/06:30am 18.8 17.4 14.6 76 2.5 SSW 15 20 8 11 1019.1 - 0.0
09/06:15am 18.2 16.6 14.0 76 2.4 SSW 15 17 8 9 1019.1 - 0.0
09/06:00am 17.7 16.3 13.5 76 2.4 SSW 13 15 7 8 1018.9 - 0.0
09/05:45am 17.9 17.0 13.7 76 2.4 S 11 13 6 7 1018.7 - 0.0
09/05:30am 17.9 17.0 13.7 76 2.4 S 11 13 6 7 1018.6 - 0.0
09/05:15am 17.9 17.0 13.8 77 2.3 S 11 13 6 7 1018.7 - 0.0
09/05:00am 18.2 17.4 14.0 76 2.4 S 11 13 6 7 1018.6 - 0.0
09/04:45am 18.2 17.4 14.0 76 2.4 S 11 15 6 8 1018.5 - 0.0
09/04:30am 18.2 17.0 14.0 76 2.4 S 13 15 7 8 1018.6 - 0.0
09/04:15am 18.4 17.3 14.2 76 2.4 S 13 15 7 8 1018.7 - 0.0
09/04:00am 18.7 18.1 14.6 77 2.4 S 11 13 6 7 1018.7 - 0.0
09/03:45am 18.6 17.5 14.4 76 2.4 S 13 17 7 9 1018.8 - 0.0
09/03:30am 18.7 17.7 14.5 76 2.4 S 13 17 7 9 1018.8 - 0.0
09/03:15am 18.5 17.4 14.3 76 2.4 S 13 15 7 8 1018.8 - 0.0
09/03:00am 18.8 18.2 14.6 76 2.5 S 11 17 6 9 1018.9 - 0.0
09/02:45am 18.6 17.5 14.4 76 2.4 S 13 17 7 9 1019.0 - 0.0
09/02:30am 18.5 17.0 14.3 76 2.4 S 15 17 8 9 1019.1 - 0.0
09/02:15am 18.5 17.0 14.3 76 2.4 S 15 19 8 10 1019.1 - 0.0
09/02:00am 18.7 17.7 14.5 76 2.4 S 13 17 7 9 1019.3 - 0.0
09/01:45am 18.8 18.6 14.6 76 2.5 S 9 13 5 7 1019.4 - 0.0
09/01:30am 19.1 19.4 14.9 76 2.5 S 7 9 4 5 1019.5 - 0.0
09/01:15am 19.0 19.2 14.7 76 2.5 S 7 11 4 6 1019.5 - 0.0
09/01:00am 19.2 19.5 15.0 76 2.5 S 7 11 4 6 1019.6 - 0.0
09/12:45am 19.3 19.6 15.0 76 2.5 S 7 9 4 5 1019.6 - 0.0
09/12:30am 19.4 19.7 15.1 76 2.5 S 7 11 4 6 1019.6 - 0.0
09/12:15am 19.6 19.6 15.3 76 2.5 SSE 9 13 5 7 1019.6 - 0.0
09/12:00am 19.9 20.6 15.5 76 2.6 S 6 11 3 6 1019.6 - 0.0
 
Date/Time
EDT
Temp
°C
App
Temp
°C
Dew
Point
Rel
Hum
%
Delta-T
°C
Wind Press
QNH
hPa
Press
MSL
hPa
Rain
since 9 am
mm
Dir
 
Spd
km/h
Gust
km/h
Spd
kts
Gust
kts
08/11:45pm 20.1 20.9 15.8 76 2.6 SSW 6 7 3 4 1019.6 - 0.0
08/11:30pm 19.8 20.5 15.5 76 2.6 SSW 6 9 3 5 1019.7 - 0.0
08/11:15pm 19.7 20.2 15.5 77 2.5 S 7 11 4 6 1019.7 - 0.0
08/11:00pm 19.8 20.3 15.5 76 2.6 S 7 9 4 5 1019.6 - 0.0
08/10:45pm 19.8 20.5 15.5 76 2.6 S 6 7 3 4 1019.7 - 0.0
08/10:30pm 19.8 20.2 15.4 76 2.6 SSE 7 11 4 6 1019.7 - 0.0
08/10:15pm 19.9 19.6 15.4 75 2.7 SSE 11 13 6 7 1019.5 - 0.0
08/10:00pm 20.2 20.3 15.5 74 2.8 SSE 9 13 5 7 1019.2 - 0.0
08/09:45pm 20.5 20.7 15.7 74 2.9 SSE 9 11 5 6 1019.1 - 0.0
08/09:30pm 20.9 21.5 15.9 73 3.0 SSE 7 13 4 7 1019.0 - 0.0
08/09:15pm 21.1 21.0 16.0 72 3.1 SE 11 13 6 7 1018.8 - 0.0
08/09:00pm 21.2 20.7 16.0 72 3.1 ESE 13 17 7 9 1018.6 - 0.0
08/08:45pm 21.4 21.3 16.1 72 3.2 ESE 11 13 6 7 1018.5 - 0.0
08/08:30pm 21.6 21.5 16.1 71 3.3 SE 11 13 6 7 1018.5 - 0.0
08/08:15pm 21.8 21.7 16.0 69 3.5 SE 11 17 6 9 1018.3 - 0.0
08/08:00pm 22.1 21.3 16.0 68 3.7 SE 15 19 8 10 1018.2 - 0.0
08/07:45pm 22.6 22.1 16.0 66 4.0 ESE 13 20 7 11 1018.0 - 0.0
08/07:30pm 23.1 22.2 15.8 63 4.4 ESE 15 22 8 12 1017.8 - 0.0
08/07:15pm 23.5 22.5 15.6 61 4.8 ESE 15 22 8 12 1017.5 - 0.0
08/07:00pm 23.9 23.2 15.5 59 5.1 ESE 13 20 7 11 1017.3 - 0.0
08/06:45pm 24.2 23.2 15.5 58 5.3 ESE 15 19 8 10 1017.2 - 0.0
08/06:30pm 24.7 23.7 15.6 57 5.5 ESE 15 24 8 13 1017.2 - 0.0
08/06:15pm 24.8 23.8 15.5 56 5.7 ESE 15 22 8 12 1017.2 - 0.0
08/06:00pm 24.9 23.9 15.5 56 5.7 ESE 15 24 8 13 1017.2 - 0.0
08/05:45pm 25.2 24.2 15.5 55 5.9 SE 15 22 8 12 1017.3 - 0.0
08/05:30pm 25.4 24.4 15.7 55 5.9 SE 15 22 8 12 1017.4 - 0.0
08/05:15pm 25.6 24.6 15.5 53 6.2 ESE 15 24 8 13 1017.5 - 0.0
08/05:00pm 25.9 25.3 15.6 53 6.3 ESE 13 22 7 12 1017.5 - 0.0
08/04:45pm 26.1 25.1 15.6 52 6.4 ESE 15 22 8 12 1017.5 - 0.0
08/04:30pm 26.4 24.9 15.2 50 6.8 ESE 17 24 9 13 1017.5 - 0.0
08/04:15pm 26.1 24.8 14.9 50 6.8 ESE 15 22 8 12 1017.5 - 0.0
08/04:00pm 26.1 24.9 15.0 50 6.7 ESE 15 22 8 12 1017.6 - 0.0
08/03:45pm 26.3 25.3 15.5 51 6.6 ESE 15 24 8 13 1017.6 - 0.0
08/03:30pm 26.7 25.5 16.0 52 6.6 ESE 17 24 9 13 1017.6 - 0.0
08/03:15pm 26.8 25.8 15.7 50 6.8 ESE 15 22 8 12 1017.7 - 0.0
08/03:00pm 26.9 26.2 15.4 49 7.0 ESE 13 22 7 12 1017.7 - 0.0
08/02:45pm 27.1 26.5 15.7 49 7.0 E 13 22 7 12 1017.8 - 0.0
08/02:30pm 27.0 25.9 15.3 48 7.1 E 15 20 8 11 1017.8 - 0.0
08/02:15pm 26.7 26.2 15.0 48 7.1 ESE 11 22 6 12 1017.9 - 0.0
08/02:00pm 26.9 26.2 15.4 49 7.0 E 13 19 7 10 1018.0 - 0.0
08/01:45pm 26.9 26.3 15.6 50 6.9 E 13 20 7 11 1018.0 - 0.0
08/01:30pm 26.9 26.3 15.6 50 6.9 ENE 13 24 7 13 1018.2 - 0.0
08/01:15pm 26.8 26.5 15.4 49 7.0 ESE 11 17 6 9 1018.3 - 0.0
08/01:00pm 26.6 26.3 15.4 50 6.8 E 11 20 6 11 1018.4 - 0.0
08/12:45pm 26.2 26.2 15.1 50 6.7 E 9 19 5 10 1018.5 - 0.0
08/12:30pm 26.2 26.6 15.2 50 6.7 E 7 17 4 9 1018.6 - 0.0
08/12:15pm 26.0 26.4 15.4 52 6.5 E 7 15 4 8 1018.9 - 0.0
08/12:00pm 25.7 26.3 15.2 52 6.4 E 6 13 3 7 1018.9 - 0.0
08/11:45am 25.9 26.5 15.7 53 6.2 SE 7 17 4 9 1019.1 - 0.0
08/11:30am 25.1 25.7 15.2 54 6.0 E 6 13 3 7 1019.1 - 0.0
08/11:15am 25.0 25.9 15.0 53 6.0 SSE 4 11 2 6 1019.2 - 0.0
08/11:00am 24.6 24.8 14.8 54 5.9 SE 7 13 4 7 1019.2 - 0.0
08/10:45am 24.7 24.8 15.5 56 5.6 SE 9 17 5 9 1019.2 - 0.0
08/10:30am 24.0 24.3 15.0 57 5.4 SSE 7 15 4 8 1019.3 - 0.0
08/10:15am 23.8 23.8 15.1 58 5.2 SE 9 13 5 7 1019.2 - 0.0
08/10:00am 23.6 23.4 15.6 61 4.8 SE 11 17 6 9 1019.2 - 0.0
08/09:45am 23.2 23.0 15.7 62 4.5 SE 11 17 6 9 1019.1 - 0.0
08/09:30am 22.9 23.2 16.1 65 4.1 SE 9 13 5 7 1019.0 - 0.0
08/09:15am 22.6 23.4 16.3 67 3.8 SSE 7 13 4 7 1019.0 - 0.0
08/09:00am 22.3 23.4 16.6 70 3.5 S 6 11 3 6 1019.0 - 0.0
08/08:45am 21.6 22.6 16.4 72 3.2 S 6 11 3 6 1019.0 - 0.0
08/08:30am 21.0 21.9 16.5 75 2.7 S 7 11 4 6 1018.9 - 0.0
08/08:15am 19.9 20.1 15.7 77 2.5 S 9 13 5 7 1018.8 - 0.0
08/08:00am 18.7 18.1 14.5 76 2.4 S 11 15 6 8 1018.7 - 0.0
08/07:45am 17.6 16.6 13.5 77 2.3 S 11 13 6 7 1018.5 - 0.0
08/07:30am 16.8 15.2 12.7 77 2.3 S 13 15 7 8 1018.5 - 0.0
08/07:15am 16.3 14.5 12.2 77 2.3 S 13 13 7 7 1018.4 - 0.0
08/07:00am 15.6 13.6 11.5 76 2.2 S 13 15 7 8 1018.3 - 0.0
08/06:45am 15.4 13.3 11.3 76 2.2 S 13 13 7 7 1018.2 - 0.0
08/06:30am 15.4 13.3 11.3 76 2.2 SSW 13 17 7 9 1018.1 - 0.0
08/06:15am 15.3 12.8 11.2 76 2.2 S 15 17 8 9 1018.0 - 0.0
08/06:00am 15.5 13.1 11.4 76 2.2 S 15 17 8 9 1017.8 - 0.0
08/05:45am 15.6 13.6 11.5 76 2.2 S 13 17 7 9 1017.8 - 0.0
08/05:30am 15.7 13.4 11.6 76 2.2 S 15 17 8 9 1017.7 - 0.0
08/05:15am 16.1 14.6 12.0 76 2.3 SSW 11 15 6 8 1017.6 - 0.0
08/05:00am 16.5 15.1 12.3 76 2.3 SSW 11 17 6 9 1017.5 - 0.0
08/04:45am 16.5 14.4 12.4 77 2.3 SSW 15 17 8 9 1017.4 - 0.0
08/04:30am 16.4 14.3 12.3 77 2.3 SSW 15 17 8 9 1017.5 - 0.0
08/04:15am 16.6 14.9 12.4 76 2.3 SSW 13 15 7 8 1017.5 - 0.0
08/04:00am 16.7 15.4 12.5 76 2.3 SSW 11 13 6 7 1017.6 - 0.0
08/03:45am 16.8 15.6 12.7 77 2.3 SSW 11 11 6 6 1017.7 - 0.0
08/03:30am 16.8 15.9 12.6 76 2.3 SSW 9 11 5 6 1017.8 - 0.0
08/03:15am 16.6 15.6 12.4 76 2.3 SSW 9 11 5 6 1017.9 - 0.0
08/03:00am 16.5 15.5 12.4 77 2.3 SSW 9 9 5 5 1018.0 - 0.0
08/02:45am 16.7 16.2 12.6 77 2.3 SSW 7 9 4 5 1018.1 - 0.0
08/02:30am 16.9 16.4 12.7 76 2.3 SSW 7 9 4 5 1018.2 - 0.0
08/02:15am 17.0 16.5 12.8 76 2.4 SSW 7 7 4 4 1018.2 - 0.0
08/02:00am 17.1 16.9 12.9 76 2.4 SSW 6 7 3 4 1018.3 - 0.0
08/01:45am 17.2 17.0 13.1 77 2.3 SSW 6 7 3 4 1018.4 - 0.0
08/01:30am 17.5 17.2 13.4 77 2.3 S 7 7 4 4 1018.5 - 0.0
08/01:15am 17.6 17.3 13.3 76 2.4 S 7 7 4 4 1018.6 - 0.0
08/01:00am 17.8 17.6 13.6 76 2.4 S 7 7 4 4 1018.7 - 0.0
08/12:45am 17.6 17.4 13.5 77 2.3 S 7 9 4 5 1018.7 - 0.0
08/12:30am 17.7 17.7 13.5 76 2.4 SE 6 7 3 4 1018.7 - 0.0
08/12:15am 18.1 18.2 13.8 76 2.5 SE 6 6 3 3 1018.7 - 0.0
08/12:00am 18.6 19.2 14.2 75 2.5 SSE 4 4 2 2 1018.7 - 0.0
 
Date/Time
EDT
Temp
°C
App
Temp
°C
Dew
Point
Rel
Hum
%
Delta-T
°C
Wind Press
QNH
hPa
Press
MSL
hPa
Rain
since 9 am
mm
Dir
 
Spd
km/h
Gust
km/h
Spd
kts
Gust
kts
07/11:45pm 18.8 19.4 14.3 75 2.6 SSE 4 4 2 2 1018.7 - 0.0
07/11:30pm 18.9 19.2 14.4 75 2.6 SE 6 7 3 4 1018.7 - 0.0
07/11:15pm 19.1 19.4 14.5 74 2.7 SE 6 7 3 4 1018.7 - 0.0
07/11:00pm 19.2 19.4 14.6 74 2.7 ESE 7 9 4 5 1018.7 - 0.0
07/10:45pm 19.3 19.1 14.6 74 2.7 ESE 9 11 5 6 1018.6 - 0.0
07/10:30pm 19.4 18.8 14.7 74 2.8 ESE 11 13 6 7 1018.5 - 0.0
07/10:15pm 19.4 18.8 14.6 74 2.8 ESE 11 13 6 7 1018.4 - 0.0
07/10:00pm 19.7 19.5 14.7 73 2.9 SE 9 11 5 6 1018.3 - 0.0
07/09:45pm 20.1 20.0 14.9 72 3.1 SE 9 13 5 7 1018.2 - 0.0
07/09:30pm 20.4 20.4 15.1 71 3.1 SE 9 13 5 7 1018.1 - 0.0
07/09:15pm 20.6 20.6 15.2 71 3.2 SE 9 11 5 6 1017.9 - 0.0
07/09:00pm 20.8 20.8 15.2 70 3.3 SE 9 11 5 6 1017.8 - 0.0
07/08:45pm 21.1 20.7 15.3 69 3.5 ESE 11 13 6 7 1017.6 - 0.0
07/08:30pm 21.4 21.0 15.3 68 3.6 ESE 11 13 6 7 1017.5 - 0.0
07/08:15pm 21.6 21.3 15.4 68 3.7 ESE 11 15 6 8 1017.5 - 0.0
07/08:00pm 21.9 21.6 15.4 66 3.9 ESE 11 17 6 9 1017.3 - 0.0
07/07:45pm 22.3 21.6 15.3 64 4.2 ESE 13 19 7 10 1017.1 - 0.0
07/07:30pm 22.7 21.9 15.2 62 4.5 ESE 13 19 7 10 1016.9 - 0.0
07/07:15pm 23.0 21.7 14.9 60 4.8 ESE 15 22 8 12 1016.7 - 0.0
07/07:00pm 23.2 21.9 14.9 59 5.0 ESE 15 22 8 12 1016.6 - 0.0
07/06:45pm 23.6 22.3 14.9 58 5.2 ESE 15 24 8 13 1016.5 - 0.0
07/06:30pm 24.0 22.8 15.1 57 5.4 ESE 15 22 8 12 1016.4 - 0.0
07/06:15pm 23.9 22.3 14.9 57 5.4 ESE 17 24 9 13 1016.3 - 0.0
07/06:00pm 24.4 23.1 14.9 55 5.7 E 15 20 8 11 1016.1 - 0.0
07/05:45pm 24.5 23.3 15.1 55 5.7 ESE 15 26 8 14 1016.1 - 0.0
07/05:30pm 24.2 22.5 14.6 55 5.7 ESE 17 24 9 13 1016.1 - 0.0
07/05:15pm 24.5 23.2 14.7 54 5.9 ESE 15 22 8 12 1016.0 - 0.0
07/05:00pm 24.2 22.5 14.6 55 5.7 ESE 17 26 9 14 1016.0 - 0.0
07/04:45pm 24.8 22.9 15.3 55 5.8 E 19 24 10 13 1016.0 - 0.0
07/04:30pm 24.6 23.1 15.3 56 5.6 ESE 17 28 9 15 1016.0 - 0.0
07/04:15pm 24.4 23.3 15.2 56 5.6 ESE 15 22 8 12 1016.0 - 0.0
07/04:00pm 24.6 23.5 15.3 56 5.6 ESE 15 22 8 12 1016.1 - 0.0
07/03:45pm 24.5 22.8 15.7 58 5.4 ESE 19 24 10 13 1016.3 - 0.0
07/03:30pm 24.4 23.1 15.7 58 5.3 ESE 17 24 9 13 1016.4 - 0.0
07/03:15pm 24.7 23.1 15.9 58 5.4 ESE 19 28 10 15 1016.4 - 0.0
07/03:00pm 24.6 23.2 15.5 57 5.5 ESE 17 22 9 12 1016.5 - 0.0
07/02:45pm 24.5 23.0 15.4 57 5.5 ESE 17 28 9 15 1016.5 - 0.0
07/02:30pm 24.8 23.5 15.7 57 5.5 ESE 17 24 9 13 1016.6 - 0.0
07/02:15pm 23.9 22.4 15.2 58 5.2 ESE 17 26 9 14 1016.7 - 0.0
07/02:00pm 24.2 22.7 15.2 57 5.4 ESE 17 26 9 14 1016.7 - 0.0
07/01:45pm 24.0 22.8 15.0 57 5.4 ESE 15 24 8 13 1016.9 - 0.0
07/01:30pm 23.9 22.4 15.2 58 5.2 ESE 17 24 9 13 1017.0 - 0.0
07/01:15pm 23.6 22.0 15.1 59 5.1 ESE 17 22 9 12 1017.2 - 0.0
07/01:00pm 23.6 22.8 15.2 59 5.1 ESE 13 20 7 11 1017.3 - 0.0
07/12:45pm 23.6 22.5 15.3 59 5.0 SE 15 22 8 12 1017.4 - 0.0
07/12:30pm 23.7 23.0 15.5 60 5.0 SE 13 20 7 11 1017.5 - 0.0
07/12:15pm 23.8 22.7 15.4 59 5.1 SE 15 20 8 11 1017.6 - 0.0
07/12:00pm 23.7 23.5 15.6 60 4.9 ESE 11 17 6 9 1017.7 - 0.0
07/11:45am 23.1 22.7 15.3 61 4.7 SE 11 20 6 11 1017.8 - 0.0
07/11:30am 23.3 22.6 15.5 61 4.7 SE 13 22 7 12 1017.9 - 0.0
07/11:15am 23.3 22.8 15.8 62 4.6 SE 13 20 7 11 1018.0 - 0.0
07/11:00am 22.7 22.5 15.6 64 4.3 ESE 11 19 6 10 1018.2 - 0.0
07/10:45am 22.5 22.3 15.7 65 4.1 SE 11 19 6 10 1018.1 - 0.0
07/10:30am 21.8 20.7 15.2 66 3.9 SSE 15 20 8 11 1018.1 - 0.0
07/10:15am 22.2 21.1 15.2 64 4.2 SE 15 22 8 12 1018.0 - 0.0
07/10:00am 22.4 21.4 15.6 65 4.1 SSE 15 22 8 12 1018.1 - 0.0
07/09:45am 22.0 21.4 15.6 67 3.9 SSE 13 19 7 10 1018.2 - 0.0
07/09:30am 21.8 20.8 15.6 68 3.7 SSE 15 20 8 11 1018.1 - 0.0
07/09:15am 21.4 20.8 15.6 69 3.5 SSE 13 20 7 11 1018.0 - 0.0
07/09:00am 20.9 19.9 15.6 71 3.2 SSE 15 22 8 12 1018.0 - 3.8
07/08:45am 19.8 19.0 15.0 74 2.8 SSE 13 20 7 11 1017.9 - 3.8
07/08:30am 19.3 18.6 14.4 73 2.9 SSE 11 15 6 8 1017.9 - 3.8
07/08:15am 19.6 19.1 14.8 74 2.8 SSE 11 17 6 9 1017.7 - 3.8
07/08:00am 18.8 18.5 14.5 76 2.5 S 9 13 5 7 1017.6 - 3.8
07/07:45am 18.3 17.5 14.1 76 2.4 S 11 15 6 8 1017.6 - 3.8
07/07:30am 17.9 16.2 13.7 76 2.4 S 15 19 8 10 1017.4 - 3.8
07/07:15am 17.6 15.8 13.4 76 2.4 S 15 17 8 9 1017.3 - 3.8
07/07:00am 17.5 16.5 13.4 77 2.3 S 11 15 6 8 1017.2 - 3.8
07/06:45am 17.4 16.7 13.3 77 2.3 S 9 13 5 7 1017.1 - 3.8
07/06:30am 17.3 16.2 13.1 76 2.4 SSE 11 13 6 7 1017.0 - 3.8
07/06:15am 17.3 15.8 13.1 76 2.4 SSE 13 17 7 9 1016.8 - 3.8
07/06:00am 17.1 15.2 12.9 76 2.4 S 15 17 8 9 1016.7 - 3.8
07/05:45am 17.1 15.6 13.0 77 2.3 S 13 15 7 8 1016.5 - 3.8
07/05:30am 17.2 15.7 13.0 76 2.4 S 13 15 7 8 1016.4 - 3.8
07/05:15am 17.0 15.8 12.9 77 2.3 S 11 13 6 7 1016.4 - 3.8
07/05:00am 16.9 15.7 12.7 76 2.3 SSE 11 13 6 7 1016.6 - 3.8
07/04:45am 17.1 15.9 12.7 75 2.5 SSE 11 13 6 7 1016.6 - 3.8
07/04:30am 17.3 16.2 13.0 76 2.4 SSE 11 13 6 7 1016.7 - 3.8
07/04:15am 17.2 15.3 12.9 76 2.4 S 15 19 8 10 1016.8 - 3.8
07/04:00am 17.1 15.1 12.6 75 2.5 S 15 19 8 10 1016.8 - 3.8
07/03:45am 17.3 16.1 12.8 75 2.5 S 11 13 6 7 1016.9 - 3.8
07/03:30am 17.4 16.2 12.9 75 2.5 SSE 11 13 6 7 1016.9 - 3.8
07/03:15am 17.6 16.4 12.9 74 2.6 SSE 11 13 6 7 1017.0 - 3.8
07/03:00am 17.8 16.7 13.0 73 2.7 SSE 11 13 6 7 1017.1 - 3.8
07/02:45am 17.8 17.0 13.0 73 2.7 SSE 9 11 5 6 1017.2 - 3.8
07/02:30am 17.9 17.2 13.1 73 2.7 SSE 9 11 5 6 1017.2 - 3.8
07/02:15am 17.7 16.6 13.0 74 2.7 SSE 11 13 6 7 1017.3 - 3.8
07/02:00am 17.8 16.7 13.0 73 2.7 S 11 15 6 8 1017.4 - 3.8
07/01:45am 18.1 17.0 13.1 72 2.8 SSE 11 13 6 7 1017.5 - 3.8
07/01:30am 18.3 17.3 13.3 72 2.8 SSE 11 11 6 6 1017.8 - 3.8
07/01:15am 18.3 17.2 13.1 71 2.9 SSE 11 11 6 6 1018.0 - 3.8
07/01:00am 18.6 18.0 13.4 72 3.0 SSE 9 11 5 6 1018.0 - 3.8
07/12:45am 18.7 18.1 13.4 71 3.0 SSE 9 11 5 6 1018.2 - 3.8
07/12:30am 18.6 17.9 13.2 71 3.1 SSE 9 11 5 6 1018.2 - 3.8
07/12:15am 18.6 17.5 13.2 71 3.1 SSE 11 13 6 7 1018.2 - 3.8
07/12:00am 18.7 17.7 13.3 71 3.1 SSE 11 13 6 7 1018.1 - 3.8
 
Date/Time
EDT
Temp
°C
App
Temp
°C
Dew
Point
Rel
Hum
%
Delta-T
°C
Wind Press
QNH
hPa
Press
MSL
hPa
Rain
since 9 am
mm
Dir
 
Spd
km/h
Gust
km/h
Spd
kts
Gust
kts
06/11:45pm 18.6 17.9 13.2 71 3.1 SSE 9 11 5 6 1018.1 - 3.8
06/11:30pm 18.4 17.3 13.0 71 3.1 SSE 11 13 6 7 1018.1 - 3.8
06/11:15pm 18.6 17.5 13.1 70 3.1 SSE 11 13 6 7 1018.2 - 3.8
06/11:00pm 18.6 17.5 13.0 70 3.2 SSE 11 11 6 6 1018.4 - 3.8
06/10:45pm 18.6 17.5 13.0 70 3.2 SSE 11 13 6 7 1018.3 - 3.8
06/10:30pm 18.7 17.9 13.0 69 3.2 SSE 9 11 5 6 1018.3 - 3.8
06/10:15pm 19.1 18.0 13.2 68 3.4 SSE 11 13 6 7 1018.3 - 3.8
06/10:00pm 19.1 18.1 13.3 69 3.3 SE 11 15 6 8 1018.3 - 3.8
06/09:45pm 19.0 17.5 13.1 68 3.4 SE 13 15 7 8 1018.2 - 3.8
06/09:30pm 19.2 17.7 13.2 68 3.4 SE 13 17 7 9 1018.1 - 3.8
06/09:15pm 19.6 18.1 13.2 66 3.7 SE 13 17 7 9 1018.0 - 3.8
06/09:00pm 19.8 18.0 13.3 66 3.7 ESE 15 17 8 9 1018.0 - 3.8
06/08:45pm 20.0 18.6 13.3 65 3.8 ESE 13 17 7 9 1018.0 - 3.8
06/08:30pm 20.2 18.4 13.4 65 3.9 ESE 15 19 8 10 1017.8 - 3.8
06/08:15pm 20.5 18.8 13.5 64 4.0 ESE 15 19 8 10 1017.7 - 3.8
06/08:00pm 20.7 19.0 13.6 64 4.1 ESE 15 19 8 10 1017.6 - 3.8
06/07:45pm 21.0 19.7 13.6 62 4.3 ESE 13 19 7 10 1017.4 - 3.8
06/07:30pm 21.3 19.6 13.6 61 4.5 ESE 15 20 8 11 1017.2 - 3.8
06/07:15pm 21.5 19.5 13.8 61 4.5 ESE 17 24 9 13 1017.0 - 3.8
06/07:00pm 21.5 19.9 13.8 61 4.5 ESE 15 22 8 12 1016.8 - 3.8
06/06:45pm 21.7 19.3 13.8 60 4.6 ESE 19 30 10 16 1016.7 - 3.8
06/06:30pm 22.2 20.1 13.7 58 5.0 ESE 17 28 9 15 1016.4 - 3.8
06/06:15pm 22.4 19.9 13.6 57 5.1 ESE 19 26 10 14 1016.3 - 3.8
06/06:00pm 22.6 20.2 13.7 57 5.2 SE 19 30 10 16 1016.3 - 3.8
06/05:45pm 22.8 20.2 13.7 56 5.3 SE 20 30 11 16 1016.2 - 3.8
06/05:30pm 22.9 20.5 13.9 57 5.3 SE 19 28 10 15 1016.3 - 3.8
06/05:15pm 23.1 20.6 14.0 56 5.4 SE 20 30 11 16 1016.4 - 3.8
06/05:00pm 23.0 20.1 13.9 56 5.3 SE 22 30 12 16 1016.5 - 3.8
06/04:45pm 23.1 20.8 14.1 57 5.3 SE 19 30 10 16 1016.5 - 3.8
06/04:30pm 23.1 20.7 13.9 56 5.4 ESE 19 28 10 15 1016.5 - 3.8
06/04:15pm 23.7 21.5 14.5 56 5.5 ESE 19 30 10 16 1016.5 - 3.8
06/04:00pm 23.2 20.4 14.2 57 5.3 SE 22 32 12 17 1016.6 - 3.8
06/03:45pm 23.1 20.1 13.8 55 5.5 ESE 22 33 12 18 1016.7 - 3.8
06/03:30pm 23.4 20.9 14.2 56 5.4 E 20 33 11 18 1016.8 - 3.8
06/03:15pm 23.2 20.7 14.1 56 5.4 ESE 20 28 11 15 1017.0 - 3.8
06/03:00pm 22.9 20.4 14.1 57 5.2 ESE 20 28 11 15 1017.2 - 3.8
06/02:45pm 23.1 20.8 14.7 59 5.0 ESE 20 30 11 16 1017.3 - 3.8
06/02:30pm 23.2 21.0 14.4 57 5.2 ESE 19 30 10 16 1017.4 - 3.8
06/02:15pm 23.3 21.3 15.0 59 5.0 ESE 19 32 10 17 1017.4 - 3.8
06/02:00pm 21.8 20.1 14.8 64 4.2 SE 17 32 9 17 1017.6 - 3.8
06/01:45pm 23.0 20.3 14.7 59 4.9 SE 22 30 12 16 1017.5 - 3.8
06/01:30pm 23.3 21.4 15.2 60 4.9 ESE 19 30 10 16 1017.5 - 3.8
06/01:15pm 23.2 21.3 15.8 63 4.5 ESE 20 30 11 16 1017.7 - 3.8
06/01:00pm 22.0 21.2 16.2 69 3.5 ESE 15 26 8 14 1017.8 - 3.8
06/12:45pm 21.0 19.4 15.9 72 3.1 SE 19 32 10 17 1018.0 - 3.8

Other Formats:

Comma delimited format used in spreadsheet applications
http://www.bom.gov.au/fwo/IDN60801/IDN60801.95757.axf

JavaScript Object Notation format (JSON) in row-major order
http://www.bom.gov.au/fwo/IDN60801/IDN60801.95757.json